createdAt,value
2019-02-07T00:00:27.186Z,43.30
2019-02-07T00:01:27.275Z,40.00
2019-02-07T00:02:27.361Z,40.70
2019-02-07T00:03:27.554Z,44.30
2019-02-07T00:04:27.537Z,42.10
2019-02-07T00:05:27.625Z,39.10
2019-02-07T00:06:27.710Z,38.90
2019-02-07T00:07:27.795Z,39.40
2019-02-07T00:08:27.879Z,39.60
2019-02-07T00:09:27.966Z,38.40
2019-02-07T00:10:28.047Z,38.20
2019-02-07T00:11:28.137Z,37.90
2019-02-07T00:12:28.227Z,37.80
2019-02-07T00:13:28.323Z,39.00
2019-02-07T00:14:39.334Z,38.20
2019-02-07T00:15:28.496Z,37.80
2019-02-07T00:16:28.582Z,37.40
2019-02-07T00:17:28.673Z,36.80
2019-02-07T00:18:28.752Z,36.60
2019-02-07T00:19:28.840Z,37.40
2019-02-07T00:20:28.925Z,37.70
2019-02-07T00:21:29.012Z,36.10
2019-02-07T00:22:29.099Z,36.20
2019-02-07T00:23:29.185Z,35.40
2019-02-07T00:24:29.263Z,34.20
2019-02-07T00:25:29.345Z,33.80
2019-02-07T00:26:29.434Z,35.30
2019-02-07T00:27:29.518Z,33.80
2019-02-07T00:28:29.603Z,34.20
2019-02-07T00:29:29.690Z,34.80
2019-02-07T00:30:29.772Z,33.30
2019-02-07T00:31:29.853Z,33.60
2019-02-07T00:32:29.938Z,32.00
2019-02-07T00:33:30.023Z,30.40
2019-02-07T00:34:30.112Z,29.80
2019-02-07T00:35:30.200Z,30.00
2019-02-07T00:36:30.285Z,29.00
2019-02-07T00:37:30.370Z,30.80
2019-02-07T00:38:30.458Z,30.70
2019-02-07T00:39:30.543Z,30.10
2019-02-07T00:40:30.631Z,29.90
2019-02-07T00:41:30.725Z,29.60
2019-02-07T00:42:30.798Z,29.50
2019-02-07T00:43:30.893Z,29.40
2019-02-07T00:44:30.982Z,29.60
2019-02-07T00:45:31.068Z,29.00
2019-02-07T00:46:31.154Z,27.40
2019-02-07T00:47:31.243Z,27.50
2019-02-07T00:48:31.334Z,27.00
2019-02-07T00:49:31.417Z,27.60
2019-02-07T00:50:31.505Z,28.50
2019-02-07T00:51:31.591Z,28.10
2019-02-07T00:52:31.676Z,28.30
2019-02-07T00:53:31.762Z,28.00
2019-02-07T00:54:31.852Z,28.30
2019-02-07T00:55:31.936Z,27.60
2019-02-07T00:56:32.026Z,26.80
2019-02-07T00:57:32.109Z,26.60
2019-02-07T00:58:32.194Z,27.40
2019-02-07T00:59:32.289Z,26.80
2019-02-07T01:00:32.371Z,26.70
2019-02-07T01:01:32.457Z,27.30
2019-02-07T01:02:32.544Z,26.00
2019-02-07T01:03:32.632Z,26.70
2019-02-07T01:04:32.714Z,26.20
2019-02-07T01:05:32.801Z,26.70
2019-02-07T01:06:32.887Z,25.70
2019-02-07T01:07:33.076Z,25.90
2019-02-07T01:08:33.058Z,26.50
2019-02-07T01:09:33.146Z,27.40
2019-02-07T01:10:33.233Z,26.40
2019-02-07T01:11:33.319Z,26.10
2019-02-07T01:12:33.403Z,26.30
2019-02-07T01:13:33.486Z,26.20
2019-02-07T01:14:33.582Z,26.20
2019-02-07T01:15:33.668Z,27.00
2019-02-07T01:16:33.754Z,26.40
2019-02-07T01:17:33.842Z,26.50
2019-02-07T01:18:33.938Z,27.00
2019-02-07T01:19:34.027Z,27.00
2019-02-07T01:20:34.113Z,25.70
2019-02-07T01:21:34.200Z,26.80
2019-02-07T01:22:34.287Z,25.70
2019-02-07T01:23:34.371Z,26.40
2019-02-07T01:24:34.455Z,26.70
2019-02-07T01:25:34.633Z,25.00
2019-02-07T01:26:34.625Z,25.40
2019-02-07T01:27:34.711Z,26.70
2019-02-07T01:28:34.796Z,27.20
2019-02-07T01:29:34.883Z,26.10
2019-02-07T01:30:34.968Z,26.20
2019-02-07T01:31:35.052Z,26.20
2019-02-07T01:32:35.137Z,25.20
2019-02-07T01:33:35.224Z,25.90
2019-02-07T01:34:35.310Z,26.40
2019-02-07T01:35:35.399Z,26.70
2019-02-07T01:36:35.486Z,27.10
2019-02-07T01:37:35.571Z,26.80
2019-02-07T01:38:35.655Z,26.50
2019-02-07T01:39:35.744Z,24.60
2019-02-07T01:40:35.830Z,25.90
2019-02-07T01:41:35.914Z,26.00
2019-02-07T01:42:35.995Z,25.90
2019-02-07T01:43:36.078Z,25.50
2019-02-07T01:44:36.162Z,25.80
2019-02-07T01:45:36.248Z,24.80
2019-02-07T01:46:36.338Z,26.20
2019-02-07T01:47:36.424Z,25.50
2019-02-07T01:48:36.514Z,26.00
2019-02-07T01:49:36.600Z,26.20
2019-02-07T01:50:36.685Z,25.80
2019-02-07T01:51:36.769Z,27.30
2019-02-07T01:52:36.856Z,27.20
2019-02-07T01:53:36.941Z,26.60
2019-02-07T01:54:37.014Z,25.90
2019-02-07T01:55:37.116Z,26.50
2019-02-07T01:56:37.205Z,25.40
2019-02-07T01:57:37.291Z,24.50
2019-02-07T01:58:37.379Z,25.00
2019-02-07T01:59:37.471Z,26.50
2019-02-07T02:00:37.554Z,25.90
2019-02-07T02:01:37.638Z,25.60
2019-02-07T02:02:37.726Z,25.70
2019-02-07T02:03:37.813Z,26.00
2019-02-07T02:04:37.896Z,26.50
2019-02-07T02:05:37.985Z,27.90
2019-02-07T02:06:38.071Z,25.50
2019-02-07T02:07:38.151Z,27.30
2019-02-07T02:08:38.246Z,26.30
2019-02-07T02:09:38.333Z,26.40
2019-02-07T02:10:38.415Z,25.50
2019-02-07T02:11:38.504Z,25.50
2019-02-07T02:12:38.589Z,25.40
2019-02-07T02:13:38.673Z,25.60
2019-02-07T02:14:38.767Z,25.80
2019-02-07T02:15:38.852Z,26.40
2019-02-07T02:16:38.936Z,26.60
2019-02-07T02:17:39.026Z,25.50
2019-02-07T02:18:39.110Z,25.90
2019-02-07T02:19:39.196Z,26.60
2019-02-07T02:20:39.281Z,25.80
2019-02-07T02:21:39.369Z,25.90
2019-02-07T02:22:39.453Z,24.80
2019-02-07T02:23:39.539Z,25.40
2019-02-07T02:24:39.629Z,25.70
2019-02-07T02:25:39.717Z,26.40
2019-02-07T02:26:39.805Z,25.90
2019-02-07T02:27:39.895Z,26.50
2019-02-07T02:28:39.987Z,25.90
2019-02-07T02:29:40.072Z,26.60
2019-02-07T02:30:40.163Z,26.80
2019-02-07T02:31:40.263Z,26.60
2019-02-07T02:32:40.350Z,26.70
2019-02-07T02:33:40.435Z,26.60
2019-02-07T02:34:40.525Z,25.80
2019-02-07T02:35:40.607Z,26.90
2019-02-07T02:36:40.695Z,25.80
2019-02-07T02:37:40.786Z,25.60
2019-02-07T02:38:40.870Z,26.50
2019-02-07T02:39:40.959Z,26.60
2019-02-07T02:40:41.049Z,26.80
2019-02-07T02:41:41.134Z,26.00
2019-02-07T02:42:41.217Z,25.80
2019-02-07T02:43:41.300Z,25.30
2019-02-07T02:44:41.388Z,26.30
2019-02-07T02:45:41.477Z,26.90
2019-02-07T02:46:41.561Z,26.00
2019-02-07T02:47:41.647Z,26.90
2019-02-07T02:48:41.738Z,26.90
2019-02-07T02:49:41.824Z,25.50
2019-02-07T02:50:41.911Z,25.70
2019-02-07T02:51:41.996Z,26.90
2019-02-07T02:52:42.082Z,26.90
2019-02-07T02:53:42.169Z,26.30
2019-02-07T02:54:42.255Z,26.00
2019-02-07T02:55:42.349Z,25.80
2019-02-07T02:56:42.425Z,26.50
2019-02-07T02:57:42.510Z,25.00
2019-02-07T02:58:42.601Z,25.90
2019-02-07T02:59:42.688Z,26.20
2019-02-07T03:00:42.774Z,27.40
2019-02-07T03:01:42.858Z,26.10
2019-02-07T03:02:42.946Z,26.30
2019-02-07T03:03:43.032Z,27.10
2019-02-07T03:04:43.119Z,26.90
2019-02-07T03:05:43.298Z,26.40
2019-02-07T03:06:43.295Z,25.80
2019-02-07T03:07:43.381Z,25.30
2019-02-07T03:08:43.565Z,25.40
2019-02-07T03:09:43.565Z,25.20
2019-02-07T03:10:43.636Z,26.00
2019-02-07T03:11:43.724Z,25.80
2019-02-07T03:12:43.807Z,26.90
2019-02-07T03:13:43.896Z,26.00
2019-02-07T03:14:43.971Z,26.50
2019-02-07T03:15:49.669Z,26.80
2019-02-07T03:16:44.151Z,26.90
2019-02-07T03:17:44.235Z,27.50
2019-02-07T03:18:44.322Z,27.10
2019-02-07T03:19:44.413Z,25.50
2019-02-07T03:20:44.499Z,25.90
2019-02-07T03:21:44.584Z,26.90
2019-02-07T03:22:44.668Z,25.10
2019-02-07T03:23:44.750Z,26.10
2019-02-07T03:24:44.837Z,26.20
2019-02-07T03:25:44.927Z,24.70
2019-02-07T03:26:45.011Z,26.50
2019-02-07T03:27:45.096Z,27.00
2019-02-07T03:28:45.182Z,26.70
2019-02-07T03:29:45.269Z,28.00
2019-02-07T03:30:45.366Z,25.60
2019-02-07T03:31:45.445Z,26.50
2019-02-07T03:32:45.531Z,26.30
2019-02-07T03:33:45.623Z,26.80
2019-02-07T03:34:45.709Z,27.70
2019-02-07T03:35:45.792Z,27.40
2019-02-07T03:36:45.876Z,26.20
2019-02-07T03:37:45.966Z,26.70
2019-02-07T03:38:46.055Z,26.10
2019-02-07T03:39:46.140Z,25.70
2019-02-07T03:40:46.229Z,27.10
2019-02-07T03:41:46.310Z,26.40
2019-02-07T03:42:46.414Z,25.50
2019-02-07T03:43:46.483Z,25.60
2019-02-07T03:44:46.644Z,25.60
2019-02-07T03:45:46.674Z,25.00
2019-02-07T03:46:46.762Z,25.90
2019-02-07T03:47:46.854Z,26.80
2019-02-07T03:48:46.942Z,25.60
2019-02-07T03:49:47.028Z,25.90
2019-02-07T03:50:47.119Z,25.10
2019-02-07T03:51:47.197Z,25.70
2019-02-07T03:52:47.284Z,25.10
2019-02-07T03:53:47.369Z,25.60
2019-02-07T03:54:47.458Z,26.70
2019-02-07T03:55:47.543Z,25.50
2019-02-07T03:56:47.629Z,25.50
2019-02-07T03:57:47.719Z,25.60
2019-02-07T03:58:47.803Z,25.10
2019-02-07T03:59:47.890Z,25.70
2019-02-07T04:00:47.980Z,24.80
2019-02-07T04:01:48.061Z,26.20
2019-02-07T04:02:48.148Z,25.00
2019-02-07T04:03:48.232Z,25.90
2019-02-07T04:04:48.319Z,25.20
2019-02-07T04:05:48.401Z,25.40
2019-02-07T04:06:48.487Z,24.10
2019-02-07T04:07:48.576Z,24.10
2019-02-07T04:08:48.660Z,25.00
2019-02-07T04:09:48.751Z,25.10
2019-02-07T04:10:48.837Z,25.20
2019-02-07T04:11:48.926Z,25.30
2019-02-07T04:12:49.011Z,24.80
2019-02-07T04:13:49.093Z,25.40
2019-02-07T04:14:49.179Z,24.80
2019-02-07T04:15:49.268Z,25.00
2019-02-07T04:16:49.351Z,24.10
2019-02-07T04:17:49.433Z,25.40
2019-02-07T04:18:49.519Z,24.60
2019-02-07T04:19:49.602Z,23.60
2019-02-07T04:20:49.687Z,24.50
2019-02-07T04:21:49.771Z,24.40
2019-02-07T04:22:49.860Z,23.60
2019-02-07T04:23:49.942Z,24.30
2019-02-07T04:24:50.033Z,24.00
2019-02-07T04:25:50.125Z,24.10
2019-02-07T04:26:50.206Z,23.20
2019-02-07T04:27:50.288Z,24.10
2019-02-07T04:28:50.372Z,23.40
2019-02-07T04:29:50.459Z,22.70
2019-02-07T04:30:50.545Z,23.30
2019-02-07T04:31:50.637Z,23.50
2019-02-07T04:32:50.724Z,24.10
2019-02-07T04:33:50.918Z,24.20
2019-02-07T04:34:50.894Z,23.80
2019-02-07T04:35:50.979Z,22.80
2019-02-07T04:36:51.067Z,23.30
2019-02-07T04:37:51.164Z,23.00
2019-02-07T04:38:51.242Z,22.70
2019-02-07T04:39:51.326Z,22.00
2019-02-07T04:40:51.415Z,22.10
2019-02-07T04:41:51.501Z,22.70
2019-02-07T04:42:51.588Z,21.80
2019-02-07T04:43:51.677Z,22.70
2019-02-07T04:44:51.769Z,22.00
2019-02-07T04:45:51.852Z,22.40
2019-02-07T04:46:51.941Z,22.10
2019-02-07T04:47:52.030Z,22.30
2019-02-07T04:48:52.118Z,23.10
2019-02-07T04:49:52.203Z,22.50
2019-02-07T04:50:52.291Z,23.20
2019-02-07T04:51:52.375Z,22.50
2019-02-07T04:52:52.480Z,22.50
2019-02-07T04:53:52.551Z,23.50
2019-02-07T04:54:52.638Z,23.30
2019-02-07T04:55:52.720Z,22.90
2019-02-07T04:56:52.806Z,22.20
2019-02-07T04:57:52.892Z,23.90
2019-02-07T04:58:52.980Z,22.60
2019-02-07T04:59:53.063Z,23.40
2019-02-07T05:00:53.161Z,21.80
2019-02-07T05:01:53.237Z,23.20
2019-02-07T05:02:53.326Z,22.60
2019-02-07T05:03:53.422Z,22.30
2019-02-07T05:04:53.510Z,22.10
2019-02-07T05:05:53.595Z,22.00
2019-02-07T05:06:53.684Z,21.70
2019-02-07T05:07:53.771Z,22.50
2019-02-07T05:08:53.858Z,22.10
2019-02-07T05:09:53.944Z,22.50
2019-02-07T05:10:54.030Z,20.80
2019-02-07T05:11:54.116Z,20.90
2019-02-07T05:12:54.203Z,20.40
2019-02-07T05:13:54.291Z,22.00
2019-02-07T05:14:54.378Z,22.00
2019-02-07T05:15:54.458Z,21.70
2019-02-07T05:16:54.547Z,21.20
2019-02-07T05:17:54.635Z,21.90
2019-02-07T05:18:54.719Z,20.50
2019-02-07T05:19:54.807Z,21.60
2019-02-07T05:20:54.891Z,21.50
2019-02-07T05:21:54.981Z,22.00
2019-02-07T05:22:55.067Z,21.20
2019-02-07T05:23:55.152Z,20.90
2019-02-07T05:24:55.234Z,20.40
2019-02-07T05:25:55.322Z,21.70
2019-02-07T05:26:55.408Z,21.60
2019-02-07T05:27:55.490Z,21.40
2019-02-07T05:28:55.580Z,20.90
2019-02-07T05:29:55.671Z,20.50
2019-02-07T05:30:55.759Z,21.50
2019-02-07T05:31:55.843Z,21.30
2019-02-07T05:32:55.933Z,20.90
2019-02-07T05:33:56.023Z,21.00
2019-02-07T05:34:56.100Z,20.80
2019-02-07T05:35:56.194Z,21.30
2019-02-07T05:36:56.282Z,21.00
2019-02-07T05:37:56.370Z,21.70
2019-02-07T05:38:56.458Z,20.90
2019-02-07T05:39:56.543Z,20.70
2019-02-07T05:40:56.619Z,21.00
2019-02-07T05:41:56.718Z,20.60
2019-02-07T05:42:56.803Z,19.90
2019-02-07T05:43:56.892Z,20.70
2019-02-07T05:44:56.981Z,21.30
2019-02-07T05:45:57.066Z,21.00
2019-02-07T05:46:57.153Z,20.80
2019-02-07T05:47:57.314Z,21.00
2019-02-07T05:48:57.325Z,21.60
2019-02-07T05:49:57.415Z,21.30
2019-02-07T05:50:57.501Z,21.60
2019-02-07T05:51:57.587Z,21.60
2019-02-07T05:52:57.670Z,20.10
2019-02-07T05:53:57.798Z,22.50
2019-02-07T05:54:57.842Z,22.10
2019-02-07T05:55:57.927Z,20.90
2019-02-07T05:56:58.014Z,21.50
2019-02-07T05:57:58.101Z,21.60
2019-02-07T05:58:59.275Z,21.50
2019-02-07T05:59:58.284Z,21.60
2019-02-07T06:00:58.358Z,20.40
2019-02-07T06:01:58.445Z,20.00
2019-02-07T06:02:58.533Z,21.20
2019-02-07T06:03:58.616Z,20.40
2019-02-07T06:04:58.705Z,21.20
2019-02-07T06:05:58.794Z,21.50
2019-02-07T06:06:58.877Z,21.00
2019-02-07T06:07:58.967Z,21.80
2019-02-07T06:08:59.051Z,21.30
2019-02-07T06:09:59.217Z,20.90
2019-02-07T06:10:59.251Z,20.70
2019-02-07T06:11:59.330Z,21.20
2019-02-07T06:12:59.424Z,21.40
2019-02-07T06:13:59.512Z,20.50
2019-02-07T06:14:59.604Z,22.10
2019-02-07T06:15:59.693Z,21.20
2019-02-07T06:17:02.699Z,21.80
2019-02-07T06:17:59.864Z,21.20
2019-02-07T06:18:59.951Z,21.60
2019-02-07T06:20:00.047Z,22.20
2019-02-07T06:21:00.130Z,22.30
2019-02-07T06:22:00.274Z,22.30
2019-02-07T06:23:00.410Z,21.80
2019-02-07T06:24:00.395Z,23.20
2019-02-07T06:25:00.485Z,21.80
2019-02-07T06:26:00.584Z,22.10
2019-02-07T06:27:00.661Z,22.30
2019-02-07T06:28:00.751Z,22.30
2019-02-07T06:29:00.836Z,21.40
2019-02-07T06:30:00.919Z,22.20
2019-02-07T06:31:01.016Z,21.90
2019-02-07T06:32:01.102Z,22.00
2019-02-07T06:33:01.194Z,21.70
2019-02-07T06:34:01.288Z,22.10
2019-02-07T06:35:01.369Z,22.00
2019-02-07T06:36:01.460Z,22.20
2019-02-07T06:37:01.546Z,22.00
2019-02-07T06:38:01.634Z,22.40
2019-02-07T06:39:01.719Z,23.90
2019-02-07T06:40:01.807Z,21.70
2019-02-07T06:41:01.895Z,22.40
2019-02-07T06:42:02.024Z,21.50
2019-02-07T06:43:02.097Z,22.80
2019-02-07T06:44:02.184Z,21.80
2019-02-07T06:45:02.266Z,23.90
2019-02-07T06:46:02.354Z,21.90
2019-02-07T06:47:13.028Z,22.60
2019-02-07T06:48:02.534Z,23.10
2019-02-07T06:49:02.621Z,22.90
2019-02-07T06:50:02.708Z,22.60
2019-02-07T06:51:02.793Z,24.10
2019-02-07T06:52:02.885Z,22.80
2019-02-07T06:53:02.974Z,23.50
2019-02-07T06:54:03.073Z,23.50
2019-02-07T06:55:03.146Z,23.40
2019-02-07T06:56:03.225Z,22.80
2019-02-07T06:57:03.317Z,23.00
2019-02-07T06:58:03.405Z,22.70
2019-02-07T06:59:03.492Z,23.20
2019-02-07T07:00:03.583Z,23.50
2019-02-07T07:01:03.662Z,22.90
2019-02-07T07:02:03.751Z,22.90
2019-02-07T07:03:03.836Z,24.30
2019-02-07T07:04:03.926Z,22.70
2019-02-07T07:05:04.012Z,24.10
2019-02-07T07:06:04.100Z,23.60
2019-02-07T07:07:04.194Z,23.50
2019-02-07T07:08:04.280Z,22.70
2019-02-07T07:09:04.368Z,22.90
2019-02-07T07:10:04.456Z,23.00
2019-02-07T07:11:04.546Z,24.30
2019-02-07T07:12:04.630Z,24.00
2019-02-07T07:13:04.717Z,24.30
2019-02-07T07:14:04.802Z,23.80
2019-02-07T07:15:04.888Z,23.00
2019-02-07T07:16:04.973Z,23.50
2019-02-07T07:17:05.067Z,23.50
2019-02-07T07:18:05.152Z,22.90
2019-02-07T07:19:05.240Z,23.30
2019-02-07T07:20:05.327Z,23.00
2019-02-07T07:21:05.416Z,23.30
2019-02-07T07:22:05.514Z,22.70
2019-02-07T07:23:05.604Z,23.00
2019-02-07T07:24:05.687Z,22.40
2019-02-07T07:25:05.779Z,22.60
2019-02-07T07:26:05.866Z,24.30
2019-02-07T07:27:05.958Z,23.60
2019-02-07T07:28:06.041Z,23.30
2019-02-07T07:29:06.128Z,23.90
2019-02-07T07:30:06.217Z,24.10
2019-02-07T07:31:06.308Z,24.30
2019-02-07T07:32:06.392Z,22.70
2019-02-07T07:33:06.479Z,23.50
2019-02-07T07:34:06.567Z,23.30
2019-02-07T07:35:06.654Z,23.40
2019-02-07T07:36:06.742Z,23.30
2019-02-07T07:37:06.828Z,23.90
2019-02-07T07:38:06.914Z,23.70
2019-02-07T07:39:07.000Z,23.10
2019-02-07T07:40:07.085Z,23.60
2019-02-07T07:41:07.170Z,23.60
2019-02-07T07:42:07.259Z,23.60
2019-02-07T07:43:07.353Z,23.00
2019-02-07T07:44:07.431Z,22.70
2019-02-07T07:45:07.515Z,24.10
2019-02-07T07:46:07.601Z,23.50
2019-02-07T07:47:07.689Z,24.20
2019-02-07T07:48:07.779Z,23.20
2019-02-07T07:49:10.442Z,24.30
2019-02-07T07:50:07.952Z,24.00
2019-02-07T07:51:08.038Z,23.40
2019-02-07T07:52:08.126Z,23.40
2019-02-07T07:53:08.211Z,23.30
2019-02-07T07:54:08.305Z,24.70
2019-02-07T07:55:08.398Z,23.90
2019-02-07T07:56:08.487Z,24.20
2019-02-07T07:57:08.573Z,23.40
2019-02-07T07:58:08.668Z,23.50
2019-02-07T07:59:08.755Z,23.70
2019-02-07T08:00:08.844Z,24.50
2019-02-07T08:01:08.932Z,24.00
2019-02-07T08:02:09.023Z,23.80
2019-02-07T08:03:09.107Z,23.30
2019-02-07T08:04:09.197Z,22.60
2019-02-07T08:05:09.280Z,23.20
2019-02-07T08:06:09.370Z,23.80
2019-02-07T08:07:09.459Z,22.80
2019-02-07T08:08:09.557Z,22.50
2019-02-07T08:09:09.641Z,23.50
2019-02-07T08:10:09.730Z,23.80
2019-02-07T08:11:09.817Z,23.30
2019-02-07T08:12:09.909Z,24.40
2019-02-07T08:13:09.992Z,23.70
2019-02-07T08:14:10.084Z,23.80
2019-02-07T08:15:10.170Z,22.50
2019-02-07T08:16:10.256Z,23.10
2019-02-07T08:17:10.342Z,23.20
2019-02-07T08:18:10.426Z,23.60
2019-02-07T08:19:10.514Z,24.20
2019-02-07T08:20:10.602Z,23.30
2019-02-07T08:21:10.688Z,24.40
2019-02-07T08:22:10.778Z,23.10
2019-02-07T08:23:10.863Z,23.60
2019-02-07T08:24:10.951Z,23.10
2019-02-07T08:25:11.039Z,23.00
2019-02-07T08:26:11.127Z,23.00
2019-02-07T08:27:11.215Z,24.20
2019-02-07T08:28:11.309Z,23.30
2019-02-07T08:29:11.389Z,23.50
2019-02-07T08:30:11.478Z,23.40
2019-02-07T08:31:11.567Z,23.60
2019-02-07T08:32:11.654Z,23.40
2019-02-07T08:33:11.736Z,23.10
2019-02-07T08:34:11.824Z,23.10
2019-02-07T08:35:11.913Z,23.40
2019-02-07T08:36:12.003Z,23.40
2019-02-07T08:37:12.088Z,24.10
2019-02-07T08:38:12.170Z,23.60
2019-02-07T08:39:12.261Z,23.50
2019-02-07T08:40:12.345Z,23.00
2019-02-07T08:41:12.433Z,23.00
2019-02-07T08:42:12.519Z,22.90
2019-02-07T08:43:12.607Z,23.50
2019-02-07T08:44:14.148Z,23.10
2019-02-07T08:45:12.782Z,23.60
2019-02-07T08:46:12.868Z,23.40
2019-02-07T08:47:12.983Z,22.80
2019-02-07T08:48:13.043Z,22.10
2019-02-07T08:49:13.133Z,22.40
2019-02-07T08:50:13.220Z,23.00
2019-02-07T08:51:13.310Z,22.70
2019-02-07T08:52:13.436Z,22.70
2019-02-07T08:53:13.528Z,23.50
2019-02-07T08:54:13.574Z,23.30
2019-02-07T08:55:13.666Z,22.80
2019-02-07T08:56:13.750Z,24.00
2019-02-07T08:57:13.835Z,23.90
2019-02-07T08:58:13.926Z,22.10
2019-02-07T08:59:14.013Z,23.50
2019-02-07T09:00:14.099Z,23.70
2019-02-07T09:01:14.189Z,22.20
2019-02-07T09:02:14.278Z,22.40
2019-02-07T09:03:14.363Z,23.40
2019-02-07T09:04:14.453Z,23.90
2019-02-07T09:05:14.538Z,23.70
2019-02-07T09:06:14.624Z,23.20
2019-02-07T09:07:14.712Z,23.80
2019-02-07T09:08:14.803Z,23.80
2019-02-07T09:09:14.889Z,23.90
2019-02-07T09:10:14.977Z,24.80
2019-02-07T09:11:15.067Z,23.70
2019-02-07T09:12:15.153Z,24.40
2019-02-07T09:13:15.241Z,24.10
2019-02-07T09:14:15.358Z,24.60
2019-02-07T09:15:15.445Z,24.80
2019-02-07T09:16:15.532Z,24.70
2019-02-07T09:17:15.622Z,24.20
2019-02-07T09:18:15.708Z,25.10
2019-02-07T09:19:15.798Z,24.30
2019-02-07T09:20:15.890Z,24.60
2019-02-07T09:21:15.974Z,24.60
2019-02-07T09:22:16.065Z,24.90
2019-02-07T09:23:16.154Z,25.20
2019-02-07T09:24:16.247Z,24.70
2019-02-07T09:25:16.338Z,25.00
2019-02-07T09:26:16.427Z,25.50
2019-02-07T09:27:25.187Z,26.00
2019-02-07T09:28:16.801Z,26.00
2019-02-07T09:29:16.731Z,24.40
2019-02-07T09:30:16.815Z,25.00
2019-02-07T09:31:16.900Z,26.00
2019-02-07T09:32:17.002Z,26.40
2019-02-07T09:33:17.062Z,26.10
2019-02-07T09:34:17.152Z,26.30
2019-02-07T09:35:17.234Z,25.40
2019-02-07T09:36:17.325Z,26.20
2019-02-07T09:37:17.411Z,24.20
2019-02-07T09:38:17.499Z,25.40
2019-02-07T09:39:17.591Z,24.40
2019-02-07T09:40:17.694Z,25.80
2019-02-07T09:41:17.764Z,30.20
2019-02-07T09:42:17.852Z,26.90
2019-02-07T09:43:17.942Z,25.90
2019-02-07T09:44:18.036Z,25.70
2019-02-07T09:45:18.119Z,25.60
2019-02-07T09:46:18.206Z,26.40
2019-02-07T09:47:18.297Z,26.70
2019-02-07T09:48:21.675Z,26.00
2019-02-07T09:49:18.465Z,28.20
2019-02-07T09:50:18.556Z,26.00
2019-02-07T09:51:18.655Z,26.50
2019-02-07T09:52:18.735Z,26.40
2019-02-07T09:53:24.050Z,27.40
2019-02-07T09:54:18.955Z,25.90
2019-02-07T09:55:19.016Z,25.10
2019-02-07T09:56:19.104Z,25.40
2019-02-07T09:57:19.179Z,27.20
2019-02-07T09:58:19.266Z,26.50
2019-02-07T09:59:19.332Z,26.70
2019-02-07T10:00:19.423Z,26.60
2019-02-07T10:01:19.497Z,27.60
2019-02-07T10:02:19.600Z,27.40
2019-02-07T10:03:19.692Z,28.00
2019-02-07T10:04:19.772Z,28.70
2019-02-07T10:05:19.847Z,27.90
2019-02-07T10:06:19.947Z,27.70
2019-02-07T10:07:20.034Z,28.00
2019-02-07T10:08:20.126Z,27.20
2019-02-07T10:09:20.206Z,27.90
2019-02-07T10:10:20.297Z,27.50
2019-02-07T10:11:20.370Z,29.00
2019-02-07T10:12:20.444Z,28.30
2019-02-07T10:13:20.548Z,27.80
2019-02-07T10:14:20.629Z,27.70
2019-02-07T10:15:20.716Z,27.30
2019-02-07T10:16:20.796Z,28.60
2019-02-07T10:17:20.891Z,28.90
2019-02-07T10:18:20.985Z,28.50
2019-02-07T10:19:21.067Z,27.90
2019-02-07T10:20:21.149Z,29.10
2019-02-07T10:21:21.233Z,28.00
2019-02-07T10:22:21.321Z,28.30
2019-02-07T10:23:21.408Z,30.50
2019-02-07T10:24:21.503Z,28.30
2019-02-07T10:25:21.592Z,27.50
2019-02-07T10:26:21.675Z,28.10
2019-02-07T10:27:21.771Z,29.00
2019-02-07T10:28:21.853Z,28.90
2019-02-07T10:29:21.936Z,27.50
2019-02-07T10:30:22.031Z,28.60
2019-02-07T10:31:22.116Z,28.80
2019-02-07T10:32:22.196Z,30.50
2019-02-07T10:33:22.290Z,28.60
2019-02-07T10:34:22.376Z,28.80
2019-02-07T10:35:23.133Z,27.30
2019-02-07T10:36:22.551Z,27.50
2019-02-07T10:37:22.624Z,28.50
2019-02-07T10:38:22.706Z,26.80
2019-02-07T10:39:22.833Z,28.10
2019-02-07T10:40:22.905Z,28.00
2019-02-07T10:41:22.988Z,27.80
2019-02-07T10:42:23.081Z,28.00
2019-02-07T10:43:23.172Z,29.00
2019-02-07T10:44:23.252Z,28.00
2019-02-07T10:45:23.332Z,28.20
2019-02-07T10:46:23.424Z,28.40
2019-02-07T10:47:23.510Z,30.00
2019-02-07T10:48:23.600Z,29.20
2019-02-07T10:49:23.692Z,28.70
2019-02-07T10:50:23.778Z,28.10
2019-02-07T10:51:23.865Z,28.10
2019-02-07T10:52:23.951Z,27.50
2019-02-07T10:53:24.041Z,27.90
2019-02-07T10:54:24.131Z,27.80
2019-02-07T10:55:24.219Z,28.80
2019-02-07T10:56:24.308Z,28.00
2019-02-07T10:57:24.395Z,28.50
2019-02-07T10:58:25.527Z,29.70
2019-02-07T10:59:24.566Z,28.80
2019-02-07T11:00:24.660Z,28.70
2019-02-07T11:01:24.746Z,27.50
2019-02-07T11:02:24.833Z,28.00
2019-02-07T11:03:24.918Z,27.70
2019-02-07T11:04:25.010Z,28.00
2019-02-07T11:05:25.098Z,28.50
2019-02-07T11:06:25.180Z,27.90
2019-02-07T11:07:25.274Z,27.70
2019-02-07T11:08:25.358Z,28.00
2019-02-07T11:09:25.444Z,27.80
2019-02-07T11:10:25.670Z,27.80
2019-02-07T11:11:25.624Z,28.30
2019-02-07T11:12:25.709Z,26.60
2019-02-07T11:13:25.799Z,27.20
2019-02-07T11:14:25.890Z,27.20
2019-02-07T11:15:25.977Z,26.80
2019-02-07T11:16:26.063Z,28.20
2019-02-07T11:17:26.157Z,27.90
2019-02-07T11:18:26.240Z,28.40
2019-02-07T11:19:26.329Z,28.90
2019-02-07T11:20:26.416Z,27.20
2019-02-07T11:21:26.504Z,27.50
2019-02-07T11:22:26.594Z,27.30
2019-02-07T11:23:26.692Z,27.00
2019-02-07T11:24:26.775Z,26.10
2019-02-07T11:25:26.863Z,27.90
2019-02-07T11:26:26.947Z,26.90
2019-02-07T11:27:27.031Z,26.90
2019-02-07T11:28:27.130Z,27.70
2019-02-07T11:29:27.207Z,30.40
2019-02-07T11:30:27.292Z,27.50
2019-02-07T11:31:27.378Z,26.60
2019-02-07T11:32:27.463Z,27.80
2019-02-07T11:33:27.536Z,26.60
2019-02-07T11:34:27.625Z,28.40
2019-02-07T11:35:27.715Z,27.50
2019-02-07T11:36:27.799Z,27.00
2019-02-07T11:37:27.877Z,27.50
2019-02-07T11:38:27.975Z,27.40
2019-02-07T11:39:29.809Z,27.90
2019-02-07T11:40:28.159Z,27.40
2019-02-07T11:41:28.274Z,27.50
2019-02-07T11:42:28.421Z,26.80
2019-02-07T11:43:28.399Z,28.20
2019-02-07T11:44:28.512Z,27.40
2019-02-07T11:45:28.576Z,27.70
2019-02-07T11:46:28.683Z,26.90
2019-02-07T11:47:28.799Z,27.40
2019-02-07T11:48:28.979Z,25.90
2019-02-07T11:49:29.054Z,26.50
2019-02-07T11:50:29.150Z,27.50
2019-02-07T11:51:29.237Z,26.00
2019-02-07T11:52:29.356Z,25.70
2019-02-07T11:53:29.423Z,25.30
2019-02-07T11:54:29.539Z,26.50
2019-02-07T11:55:29.613Z,26.40
2019-02-07T11:56:29.730Z,26.50
2019-02-07T11:57:29.812Z,25.80
2019-02-07T11:58:29.913Z,26.30
2019-02-07T11:59:30.038Z,26.10
2019-02-07T12:00:30.187Z,26.30
2019-02-07T12:01:30.176Z,26.80
2019-02-07T12:02:30.285Z,26.60
2019-02-07T12:03:30.393Z,26.50
2019-02-07T12:04:30.481Z,26.40
2019-02-07T12:05:30.604Z,26.50
2019-02-07T12:06:30.726Z,27.30
2019-02-07T12:07:30.790Z,25.20
2019-02-07T12:08:30.885Z,24.70
2019-02-07T12:09:31.020Z,25.50
2019-02-07T12:10:31.108Z,25.40
2019-02-07T12:11:31.211Z,27.40
2019-02-07T12:12:31.322Z,25.20
2019-02-07T12:13:31.438Z,26.10
2019-02-07T12:14:31.542Z,26.00
2019-02-07T12:15:31.638Z,26.50
2019-02-07T12:16:31.736Z,25.00
2019-02-07T12:17:31.860Z,25.80
2019-02-07T12:18:31.977Z,25.50
2019-02-07T12:19:32.082Z,25.50
2019-02-07T12:20:32.200Z,25.10
2019-02-07T12:21:32.274Z,25.10
2019-02-07T12:22:32.379Z,26.00
2019-02-07T12:23:32.456Z,25.20
2019-02-07T12:24:32.562Z,25.70
2019-02-07T12:25:32.667Z,25.60
2019-02-07T12:26:32.765Z,25.90
2019-02-07T12:27:32.901Z,25.30
2019-02-07T12:28:35.921Z,25.50
2019-02-07T12:29:33.159Z,27.10
2019-02-07T12:30:33.256Z,27.10
2019-02-07T12:31:33.253Z,25.80
2019-02-07T12:32:33.387Z,25.20
2019-02-07T12:33:33.491Z,25.70
2019-02-07T12:34:33.567Z,25.10
2019-02-07T12:35:33.726Z,24.10
2019-02-07T12:36:33.732Z,25.00
2019-02-07T12:37:33.833Z,26.00
2019-02-07T12:38:33.963Z,25.10
2019-02-07T12:39:34.044Z,24.70
2019-02-07T12:40:34.166Z,24.50
2019-02-07T12:41:34.282Z,25.70
2019-02-07T12:42:34.383Z,24.60
2019-02-07T12:43:34.534Z,26.00
2019-02-07T12:44:34.683Z,25.70
2019-02-07T12:45:34.765Z,23.70
2019-02-07T12:46:34.897Z,24.40
2019-02-07T12:47:35.045Z,24.70
2019-02-07T12:48:35.143Z,24.70
2019-02-07T12:49:35.227Z,24.40
2019-02-07T12:50:35.330Z,23.70
2019-02-07T12:51:35.453Z,24.80
2019-02-07T12:52:35.573Z,25.10
2019-02-07T12:53:35.652Z,24.80